Date,TemperatureHighF,TemperatureAvgF,TemperatureLowF,DewpointHighF,DewpointAvgF,DewpointLowF,HumidityHigh,HumidityAvg,HumidityLow,PressureMaxIn,PressureMinIn,WindSpeedMaxMPH,WindSpeedAvgMPH,GustSpeedMaxMPH,PrecipitationSumIn
2013-1-1,70.9,61.1,49.8,67.4,56.8,44.0,93,86,76,30.16,29.83,7,4,12,0.09
2013-1-2,49.8,43.3,40.7,44.2,38.8,36.2,91,84,73,30.30,30.13,5,3,12,0.27
2013-1-3,49.6,45.8,42.8,38.1,36.2,33.0,81,70,54,30.37,30.26,5,3,12,0.00
2013-1-4,49.8,48.0,45.2,41.5,39.1,36.1,86,71,66,30.41,30.31,8,4,13,0.00
2013-1-5,49.2,47.0,44.8,45.3,42.2,38.8,91,84,71,30.33,30.22,5,2,11,0.01
2013-1-6,60.6,51.8,44.1,48.2,45.5,41.4,91,80,58,30.34,30.23,6,2,9,0.00
2013-1-7,58.2,52.2,45.2,53.7,48.4,42.2,95,87,78,30.28,29.97,7,3,10,0.02
2013-1-8,67.7,60.6,54.9,65.9,59.3,53.5,97,95,91,29.97,29.75,11,4,19,0.17
2013-1-9,68.8,65.0,58.6,67.5,63.5,57.2,97,95,93,29.93,29.78,11,4,14,0.97
2013-1-10,61.9,57.7,53.1,55.5,51.8,47.8,96,82,66,30.09,30.00,6,2,0,0.01
2013-1-11,74.6,65.0,55.6,68.9,62.4,54.2,96,92,81,30.02,29.80,8,3,0,0.00
2013-1-12,75.8,71.9,69.8,71.0,69.7,68.6,97,93,85,29.82,29.63,12,8,11,0.00
2013-1-13,72.2,54.9,46.2,70.2,46.0,38.5,95,73,50,30.08,29.68,8,5,16,0.01
2013-1-14,49.9,45.1,41.6,43.1,39.5,36.0,93,81,66,30.17,30.04,7,3,12,0.00
2013-1-15,45.3,43.1,41.2,43.7,40.4,36.2,95,90,80,30.21,30.01,7,4,11,0.14
2013-1-16,58.0,47.3,38.1,36.5,25.9,15.6,80,46,20,30.36,30.19,10,4,15,0.00
2013-1-17,65.6,50.2,39.5,45.4,34.4,22.9,85,56,39,30.44,30.29,5,1,9,0.00
2013-1-18,61.4,52.1,44.0,51.0,45.4,39.9,92,78,64,30.48,30.33,7,2,10,0.00
2013-1-20,61.5,59.0,58.3,56.5,55.5,54.5,91,88,83,30.12,30.09,5,3,9,0.01
2013-1-21,67.1,59.6,54.2,59.5,55.8,52.3,95,88,76,30.21,30.08,5,1,8,0.00
2013-1-22,68.1,59.9,52.4,59.8,56.3,50.7,96,88,68,30.27,30.14,6,2,8,0.01
2013-1-23,75.8,64.8,56.9,65.2,60.7,55.5,97,87,68,30.31,30.19,8,3,11,0.01
2013-1-24,79.1,68.4,62.1,65.9,63.2,60.4,95,84,62,30.26,30.11,9,5,14,0.00
2013-1-25,77.4,68.9,62.3,66.5,64.0,60.8,95,85,68,30.14,30.01,11,6,18,0.01
2013-1-26,75.8,69.1,64.5,65.5,63.4,62.1,94,83,65,30.11,30.02,11,6,20,0.00
2013-1-27,75.3,70.2,65.4,69.8,67.1,62.2,95,90,83,30.06,29.94,11,6,16,0.00
2013-1-28,76.1,71.8,69.7,70.2,68.7,67.6,95,90,81,30.05,29.88,12,8,26,0.00
2013-1-29,81.3,73.3,69.2,70.9,67.0,43.6,95,82,39,29.88,29.55,13,10,23,0.00
2013-1-30,69.0,62.3,57.2,47.0,25.4,8.6,47,26,10,30.21,29.72,14,7,20,0.00
2013-1-31,67.9,57.3,41.2,49.3,34.0,22.5,75,44,20,30.31,30.18,8,3,11,0.00
2013-2-1,69.1,62.0,54.1,55.0,51.4,47.6,87,69,47,30.32,30.18,8,3,13,0.00
2013-2-2,73.1,64.7,58.7,61.7,58.6,54.6,94,81,64,30.21,30.12,9,2,12,0.00
2013-2-3,69.7,63.2,57.2,62.2,59.7,55.8,97,89,76,30.27,30.00,8,3,12,0.01
2013-2-4,77.1,69.0,63.6,66.5,63.2,58.9,91,82,68,30.00,29.76,9,5,21,0.00
2013-2-5,79.1,68.8,62.4,69.1,65.6,60.9,96,90,69,29.93,29.82,8,3,12,0.00
2013-2-6,70.4,67.1,63.8,69.4,65.4,61.4,97,94,88,29.97,29.78,9,4,14,0.42
2013-2-7,73.4,67.0,64.0,68.7,64.6,61.4,96,92,83,29.96,29.84,5,2,8,0.00
2013-2-8,69.1,62.4,57.3,63.6,56.6,51.5,97,82,57,30.16,29.96,9,4,12,0.01
2013-2-9,72.9,68.4,63.1,69.1,65.3,59.1,93,90,85,30.04,29.76,11,7,20,0.01
2013-2-10,82.6,71.2,66.2,71.2,63.6,52.8,94,78,57,29.90,29.71,10,6,19,0.00
2013-2-11,66.2,62.2,58.1,60.3,57.2,53.2,96,84,68,29.95,29.84,10,6,20,0.01
2013-2-12,68.0,61.6,57.7,60.4,58.3,56.7,97,89,73,29.96,29.78,8,3,13,0.02
2013-2-13,61.6,57.5,51.7,58.7,46.3,40.7,93,67,50,30.14,29.94,6,3,12,0.00
2013-2-14,63.8,59.8,55.0,51.0,47.2,43.4,74,63,50,30.12,30.01,8,4,10,0.00
2013-2-15,67.8,62.4,54.9,56.6,51.8,44.2,84,69,50,30.28,30.02,10,4,15,0.00
2013-2-16,63.2,54.6,46.9,45.1,36.5,28.0,70,52,31,30.45,30.24,8,4,13,0.00
2013-2-17,68.9,59.7,42.4,58.4,49.4,38.2,88,70,49,30.24,29.98,12,6,18,0.00
2013-2-18,77.2,69.9,65.8,67.1,62.9,58.4,88,79,67,29.98,29.81,14,8,19,0.00
2013-2-19,66.1,63.0,60.8,62.7,53.7,44.1,92,72,53,30.18,29.95,11,8,17,0.00
2013-2-20,72.4,68.3,63.3,68.0,64.7,58.2,92,88,82,29.99,29.65,10,7,17,0.00
2013-2-21,81.2,73.0,66.6,70.2,64.5,55.5,92,76,52,29.78,29.55,14,6,27,0.00
2013-2-22,69.5,65.6,59.6,58.3,53.4,47.2,81,65,46,29.90,29.76,9,5,13,0.00
2013-2-23,71.5,60.8,52.6,57.0,49.6,42.0,85,67,50,29.99,29.84,6,3,13,0.00
2013-2-24,66.8,63.1,57.8,64.7,60.4,53.5,97,91,76,29.88,29.58,7,2,9,0.01
2013-2-25,72.4,66.5,55.6,67.2,39.9,7.5,97,49,8,29.85,29.49,18,9,30,0.00
2013-2-26,74.8,58.2,42.9,51.6,33.8,18.0,81,43,12,29.99,29.82,9,4,15,0.00
2013-2-27,64.3,56.3,52.9,58.8,51.8,49.6,93,85,66,30.03,29.84,7,2,10,0.00
2013-2-28,61.1,55.0,48.8,36.3,31.6,26.5,55,42,28,30.27,30.15,6,4,0,0.00
2013-3-1,59.2,57.2,54.1,48.6,46.5,45.6,74,68,61,30.21,30.12,6,2,7,0.00
2013-3-2,66.4,57.1,49.0,47.5,35.5,25.2,83,48,22,30.38,30.20,8,4,11,0.00
2013-3-3,70.1,59.6,43.9,53.4,44.6,33.8,72,59,40,30.25,29.97,11,5,17,0.00
2013-3-4,81.1,68.9,61.1,62.3,58.5,53.3,87,71,45,29.97,29.72,13,9,23,0.00
2013-3-5,70.3,63.9,56.7,62.2,46.8,29.2,91,58,24,30.28,29.76,11,5,16,0.00
2013-3-6,59.6,54.6,46.9,51.1,38.5,28.7,81,55,36,30.40,30.19,8,5,14,0.00
2013-3-7,69.1,62.9,55.7,61.8,57.9,50.9,93,84,72,30.20,30.07,10,4,16,0.00
2013-3-8,72.7,68.7,65.3,66.4,64.1,61.7,90,85,79,30.09,29.97,11,6,22,0.00
2013-3-9,75.7,70.3,67.8,67.5,65.8,64.1,91,86,75,29.97,29.63,16,9,26,0.00
2013-3-10,75.7,68.8,59.7,67.9,55.8,39.6,95,67,37,30.03,29.56,15,5,21,0.10
2013-3-11,72.8,61.8,53.2,48.8,35.6,21.9,66,42,15,30.14,29.97,9,3,14,0.00
2013-3-12,66.3,58.5,49.4,54.5,47.7,40.4,82,68,47,30.19,30.04,8,3,11,0.00
2013-3-13,63.0,59.0,55.0,57.4,53.9,51.7,93,83,72,30.36,30.19,6,2,10,0.00
2013-3-14,72.9,65.8,56.1,60.5,57.3,54.1,94,75,59,30.35,30.22,10,4,16,0.00
2013-3-15,76.2,67.5,59.5,61.4,59.0,56.2,92,75,55,30.24,30.01,11,6,17,0.00
2013-3-16,77.2,69.8,64.6,65.7,63.1,60.0,91,80,65,30.02,29.77,16,8,26,0.00
2013-3-17,79.5,72.1,66.2,69.2,66.5,63.8,93,83,69,29.81,29.62,11,7,17,0.00
2013-3-18,77.7,71.6,68.4,69.7,67.2,65.1,93,86,74,29.83,29.67,9,5,16,0.00
2013-3-19,75.9,70.1,66.4,69.4,66.5,60.6,95,88,78,29.94,29.78,9,5,16,0.00
2013-3-20,74.3,68.8,64.0,68.0,59.7,50.9,94,74,56,30.11,29.84,13,8,21,0.00
2013-3-21,74.8,69.1,63.6,66.3,62.0,57.5,88,79,62,30.01,29.64,10,6,15,0.00
2013-3-22,80.2,73.1,69.8,72.1,69.2,66.5,93,88,75,29.69,29.59,9,5,14,0.00
2013-3-23,75.9,71.7,68.2,71.8,68.8,66.3,96,91,77,29.65,29.54,7,3,11,0.00
2013-3-24,68.9,64.6,60.3,66.8,61.1,41.8,97,89,50,30.00,29.61,9,4,13,0.01
2013-3-25,57.9,56.5,54.2,33.6,32.1,28.9,45,40,33,30.30,30.27,4,2,6,0.00
2013-3-26,63.2,58.3,53.1,40.3,36.0,31.7,58,44,34,30.42,30.29,9,6,16,0.00
2013-3-27,66.6,61.2,53.2,58.6,49.5,38.8,82,65,55,30.31,30.15,9,4,16,0.00
2013-3-28,72.1,67.4,64.1,63.4,60.8,57.4,87,79,72,30.17,30.09,9,5,15,0.00
2013-3-29,75.7,69.4,63.7,65.4,63.4,60.6,92,82,64,30.13,30.02,10,5,20,0.00
2013-3-30,80.8,71.5,66.4,69.5,66.1,63.1,92,84,64,30.07,29.89,10,5,21,0.00
2013-3-31,80.8,72.7,68.5,70.5,67.9,66.0,93,85,71,29.93,29.75,11,6,17,0.00
2013-4-1,73.9,70.4,66.6,69.4,67.9,65.1,96,92,84,29.99,29.86,10,4,18,0.00
2013-4-2,75.4,71.6,69.5,71.3,69.2,67.8,95,92,87,29.95,29.73,8,4,12,0.04
2013-4-3,73.8,66.2,56.7,69.8,61.3,51.6,96,84,71,30.07,29.75,9,4,16,0.00
2013-4-4,75.5,62.2,54.3,52.3,49.5,46.3,85,66,36,30.15,30.01,7,4,13,0.00
2013-4-5,64.6,58.2,49.0,57.0,50.9,44.4,86,77,67,30.24,30.05,8,4,14,0.00
2013-4-6,76.0,68.5,61.1,62.8,60.2,56.6,87,76,59,30.07,29.85,12,6,21,0.00
2013-4-7,77.8,71.5,65.8,66.3,64.5,62.6,90,79,65,29.90,29.76,12,7,20,0.00
2013-4-8,75.6,72.3,70.3,70.1,68.7,66.3,91,88,82,29.78,29.63,11,7,17,0.00
2013-4-9,82.0,75.2,70.6,72.6,70.3,67.8,92,85,72,29.69,29.53,14,9,26,0.00
2013-4-10,80.2,69.3,58.5,73.7,64.2,50.2,92,84,65,29.80,29.58,10,6,20,0.00
2013-4-11,58.5,52.8,47.9,50.4,46.1,42.6,91,78,64,29.92,29.76,9,6,16,0.16
2013-4-13,73.8,70.9,67.1,65.4,64.0,62.4,89,79,70,29.85,29.70,11,7,16,0.00
2013-4-14,86.8,74.3,66.5,72.8,68.6,64.2,94,83,59,29.75,29.61,9,4,16,0.00
2013-4-15,83.3,75.8,71.0,72.1,70.0,67.9,93,83,67,29.77,29.66,11,7,20,0.00
2013-4-16,76.6,74.3,73.1,73.2,71.2,69.2,96,90,84,29.83,29.72,10,6,16,0.00
2013-4-17,80.1,75.6,73.4,74.4,72.9,71.8,95,91,81,29.82,29.61,12,6,20,0.00
2013-4-18,80.4,69.4,59.6,75.1,64.1,49.1,95,84,63,30.01,29.57,10,6,17,0.01
2013-4-19,69.8,59.5,53.6,49.3,41.4,33.1,72,53,30,30.28,30.01,7,4,17,0.00
2013-4-20,69.7,62.1,49.2,56.3,49.2,43.6,84,64,43,30.18,30.00,9,4,16,0.00
2013-4-21,75.1,68.9,60.8,64.7,60.5,55.0,88,75,64,30.07,29.97,9,5,17,0.00
2013-4-22,77.4,71.5,67.8,68.7,66.4,64.2,90,84,72,30.04,29.88,10,6,16,0.00
2013-4-23,79.9,73.1,69.5,71.1,69.1,66.8,93,87,74,29.90,29.78,10,6,16,0.00
2013-4-24,72.9,59.1,50.2,71.1,56.6,46.9,95,91,83,30.10,29.91,8,5,12,0.03
2013-4-25,67.1,62.7,60.3,65.9,56.1,50.7,97,80,63,30.23,30.10,6,3,8,0.31
2013-4-26,77.2,72.5,67.2,72.0,69.9,66.0,96,92,81,30.12,29.98,9,5,18,0.00
2013-4-27,78.3,74.2,72.0,72.5,70.9,69.9,95,90,80,30.03,29.87,9,4,18,0.00
2013-4-28,74.4,70.8,65.4,70.8,68.3,63.9,97,92,86,29.98,29.80,10,3,15,1.49
2013-4-29,77.1,71.9,67.1,72.6,69.6,65.9,97,93,79,29.89,29.73,10,3,14,2.52
2013-4-30,78.4,72.0,64.1,72.8,68.8,62.6,96,90,80,29.78,29.67,8,4,13,0.19
2013-5-1,79.8,75.2,71.5,74.3,71.9,69.9,96,90,81,29.85,29.70,8,4,12,0.00
2013-5-2,78.3,69.4,54.7,71.3,61.7,43.7,95,77,62,30.22,29.75,13,5,18,0.00
2013-5-3,70.6,60.6,51.6,43.9,35.1,30.5,67,41,24,30.27,30.05,11,6,28,0.00
2013-5-4,80.0,67.1,53.0,55.5,44.8,34.6,71,47,20,30.07,29.86,8,3,14,0.00
2013-5-5,77.1,68.1,57.7,62.9,57.7,53.8,87,70,51,30.04,29.90,8,3,10,0.00
2013-5-6,75.8,68.4,58.0,65.6,59.9,55.9,95,75,60,30.08,29.93,7,2,12,0.00
2013-5-7,76.9,70.6,60.7,67.3,63.5,58.6,96,79,65,30.03,29.91,8,3,13,0.00
2013-5-8,79.6,74.3,69.9,70.2,68.3,66.1,90,82,66,29.98,29.86,10,5,17,0.00
2013-5-9,79.5,76.3,73.6,73.9,72.5,70.2,93,88,81,29.90,29.76,8,5,16,0.00
2013-5-10,77.0,74.5,71.5,74.8,72.2,67.4,96,93,86,29.89,29.76,9,4,16,0.03
2013-5-11,81.5,75.4,69.9,70.9,69.3,67.0,96,82,63,30.04,29.88,7,3,11,0.29
2013-5-12,77.1,71.7,64.7,71.8,64.4,59.1,94,78,66,30.12,29.99,7,3,12,0.17
2013-5-13,78.1,72.6,64.2,68.5,65.3,61.2,93,78,68,30.22,30.10,8,3,12,0.00
2013-5-14,81.1,75.4,70.5,72.3,69.6,66.1,88,82,71,30.17,30.01,9,5,18,0.01
2013-5-15,77.0,74.1,72.9,73.9,71.4,70.5,95,91,87,30.06,29.92,10,6,15,0.10
2013-5-16,83.7,77.8,73.3,75.6,72.8,70.2,91,85,76,29.84,29.69,10,7,0,0.00
2013-5-17,86.9,79.3,74.1,75.9,73.5,70.8,92,83,59,29.85,29.73,8,6,0,0.00
2013-5-18,86.5,79.5,76.2,75.0,73.5,70.3,93,83,59,29.87,29.77,12,6,18,0.00
2013-5-19,85.0,79.7,76.6,75.6,74.2,73.1,91,84,68,29.83,29.69,11,8,20,0.00
2013-5-20,85.4,79.6,76.8,76.6,74.7,73.5,91,85,73,29.79,29.67,10,6,16,0.00
2013-5-21,85.6,80.3,77.1,76.9,75.4,74.3,92,86,74,29.75,29.65,10,5,17,0.00
2013-5-22,85.2,80.6,77.5,77.6,76.1,74.9,94,86,75,29.84,29.73,8,4,14,0.00
2013-5-23,84.1,80.2,77.6,78.3,76.3,74.9,93,88,81,29.94,29.80,8,5,16,0.00
2013-5-24,84.8,81.1,78.7,77.2,76.0,75.0,92,85,74,30.03,29.91,9,6,14,0.00
2013-5-25,81.9,79.3,77.1,76.7,75.6,72.2,93,88,84,30.04,29.95,8,6,0,0.17
2013-5-26,84.7,79.9,77.2,74.8,73.7,72.7,89,82,70,30.02,29.92,8,5,0,0.00
2013-5-27,86.2,81.3,77.2,75.7,74.3,72.7,90,80,65,29.95,29.81,10,6,16,0.00
2013-5-28,85.4,81.0,78.5,76.5,75.0,73.9,88,82,73,29.86,29.74,12,8,23,0.00
2013-5-29,84.0,80.5,78.1,76.9,75.5,74.5,90,85,77,29.80,29.68,11,7,21,0.00
2013-5-30,82.5,79.9,78.9,77.5,76.0,75.0,90,88,85,29.78,29.70,8,5,16,0.00
2013-5-31,90.6,83.1,78.8,78.4,76.9,75.7,91,82,67,29.82,29.72,10,6,18,0.00
2013-6-1,90.4,83.7,80.1,78.8,77.0,75.6,88,81,68,29.84,29.74,10,7,18,0.00
2013-6-2,85.9,81.1,75.4,80.1,75.8,72.4,94,84,73,29.95,29.81,9,3,18,0.24
2013-6-3,85.4,80.6,74.3,76.0,73.6,71.4,93,80,69,29.90,29.77,7,3,10,0.00
2013-6-4,86.2,79.7,72.1,75.7,72.7,70.3,95,80,63,29.83,29.75,7,3,11,0.00
2013-6-5,87.0,81.7,74.8,77.0,74.8,72.3,93,80,68,29.81,29.73,8,3,12,0.00
2013-6-6,88.8,82.6,75.8,78.9,76.1,73.6,94,81,67,29.79,29.68,8,2,11,0.00
2013-6-7,85.4,79.7,70.6,77.6,74.1,68.0,93,83,74,29.89,29.77,10,4,13,0.33
2013-6-8,87.5,80.2,71.5,78.3,74.5,68.9,94,83,70,29.86,29.74,10,3,14,0.00
2013-6-9,90.5,83.9,79.2,79.8,77.1,74.9,93,81,67,29.87,29.75,9,5,14,0.10
2013-6-10,88.1,83.1,77.1,79.6,76.7,73.8,94,81,72,29.91,29.85,9,3,15,0.00
2013-6-11,90.4,83.7,78.0,78.3,75.9,73.3,89,78,65,29.96,29.88,8,4,12,0.00
2013-6-12,91.2,84.2,78.4,79.5,77.1,73.7,93,80,57,29.97,29.90,8,4,14,0.16
2013-6-13,88.7,82.7,81.3,79.4,77.4,75.4,88,84,65,29.97,29.91,5,3,8,0.00
2013-6-14,90.2,83.7,80.9,80.1,78.2,76.9,88,84,69,29.92,29.82,8,3,0,0.00
2013-6-15,90.2,84.7,80.4,78.2,76.7,72.9,89,78,57,29.91,29.83,8,5,0,0.00
2013-6-16,90.1,84.2,80.3,79.5,77.3,76.0,88,80,69,29.94,29.86,8,5,0,0.00
2013-6-17,90.9,84.9,80.3,79.5,77.5,76.1,90,79,65,29.91,29.81,8,6,0,0.00
2013-6-18,91.1,83.7,78.4,78.5,76.8,75.2,91,80,63,29.91,29.81,9,4,16,0.00
2013-6-19,91.2,84.4,79.1,78.0,76.2,74.9,90,77,60,29.94,29.85,9,5,17,0.00
2013-6-20,89.4,84.2,79.5,79.2,77.2,75.5,91,80,66,29.98,29.88,9,5,16,0.00
2013-6-21,90.9,84.5,79.8,78.6,76.9,73.5,89,79,59,30.01,29.93,9,5,16,0.00
2013-6-22,92.4,84.6,79.6,78.1,76.2,70.6,91,77,52,29.97,29.86,10,5,16,0.00
2013-6-23,91.1,84.4,78.8,77.3,75.9,73.6,89,77,58,29.93,29.84,9,5,19,0.00
2013-6-24,90.8,84.9,80.6,78.3,76.8,74.2,89,77,61,29.96,29.87,11,6,22,0.00
2013-6-25,90.2,84.2,79.8,78.4,76.7,74.2,89,79,60,29.94,29.85,11,7,18,0.00
2013-6-26,92.6,84.6,79.9,79.3,77.3,73.9,91,80,55,29.91,29.84,10,6,18,0.00
2013-6-27,89.2,83.7,78.3,78.6,76.9,75.1,91,80,65,29.94,29.86,9,5,17,0.00
2013-6-28,91.5,84.4,77.8,79.5,76.4,72.3,93,78,57,29.92,29.77,9,4,16,0.00
2013-6-29,99.9,86.9,77.4,79.7,74.8,69.8,90,69,46,29.81,29.66,8,4,12,0.00
2013-6-30,86.3,79.9,71.4,74.8,71.4,69.6,95,76,58,29.90,29.69,11,2,15,0.74
2013-7-1,89.5,82.2,74.5,77.0,72.2,68.1,91,73,50,29.90,29.78,8,2,11,0.00
2013-7-2,90.5,84.1,79.1,75.0,69.1,62.2,81,62,42,29.97,29.86,7,2,10,0.00
2013-7-3,90.8,82.5,73.7,74.1,71.4,67.3,84,70,49,29.95,29.83,8,3,13,0.00
2013-7-4,87.2,81.5,73.0,76.2,73.8,70.5,93,78,66,29.91,29.83,8,3,13,0.00
2013-7-5,88.0,82.8,75.7,77.3,74.8,72.9,93,78,63,29.89,29.78,7,3,11,0.00
2013-7-6,88.0,83.1,76.7,78.3,76.5,73.9,93,81,71,29.84,29.76,8,4,0,0.00
2013-7-7,89.2,83.6,78.4,78.3,75.8,72.6,91,78,61,29.92,29.80,9,4,15,0.00
2013-7-8,89.6,83.1,75.9,78.1,76.3,71.8,90,80,66,30.04,29.91,9,4,15,0.00
2013-7-9,89.1,84.3,79.5,79.7,77.6,75.6,93,81,68,30.05,29.96,9,4,17,0.00
2013-7-10,90.2,85.5,80.0,78.6,76.9,74.2,91,76,64,30.01,29.88,10,4,15,0.00
2013-7-11,90.4,81.6,78.9,77.6,76.0,75.2,89,83,62,29.94,29.92,4,2,9,0.00
2013-7-12,90.0,84.2,77.5,77.5,75.6,73.4,91,76,59,29.89,29.83,8,4,0,0.00
2013-7-13,90.6,84.2,76.8,77.0,75.2,72.7,92,75,57,29.90,29.81,7,3,0,0.00
2013-7-14,90.0,84.3,80.2,77.2,75.8,74.5,87,76,63,29.84,29.76,10,6,15,0.00
2013-7-15,88.5,84.0,78.6,78.2,76.5,74.7,92,78,68,29.90,29.79,9,5,19,0.13
2013-7-16,86.5,81.7,76.7,77.6,75.9,72.9,91,83,71,29.98,29.87,9,6,15,0.30
2013-7-17,81.3,77.1,73.8,76.8,74.0,71.6,95,90,82,30.08,29.96,7,2,14,1.58
2013-7-18,86.8,79.9,75.2,77.8,75.1,72.4,94,86,70,30.05,29.93,7,3,11,0.12
2013-7-19,87.7,82.8,76.2,78.0,76.3,74.2,94,81,70,29.98,29.85,8,3,0,0.00
2013-7-20,87.8,83.5,78.6,78.1,76.6,75.1,90,80,71,29.91,29.80,7,3,0,0.00
2013-7-21,89.9,84.5,80.4,79.6,78.1,77.1,91,81,67,29.89,29.82,9,4,14,0.00
2013-7-22,91.1,85.7,82.1,79.7,78.5,77.6,88,79,67,29.93,29.84,11,6,24,0.00
2013-7-23,92.2,85.1,80.0,79.4,77.4,75.8,88,78,66,29.94,29.83,9,6,16,0.00
2013-7-24,90.8,84.7,80.0,79.0,77.3,75.5,90,79,67,29.91,29.81,8,5,14,0.00
2013-7-25,92.5,84.9,79.0,80.3,77.7,75.5,92,80,66,29.95,29.89,9,4,15,0.00
2013-7-26,89.2,83.5,79.9,78.9,77.3,76.6,90,82,69,29.96,29.84,10,6,16,0.00
2013-7-27,93.7,85.2,79.4,80.3,77.2,74.6,91,78,59,29.89,29.75,10,5,18,0.00
2013-7-28,91.1,84.9,79.7,78.6,77.7,76.2,92,80,66,29.87,29.79,10,6,19,0.00
2013-7-29,90.4,84.5,80.3,78.2,77.4,76.4,91,80,65,29.98,29.86,11,6,17,0.00
2013-7-30,91.3,84.4,80.1,78.8,77.7,76.7,91,81,64,30.02,29.93,10,6,17,0.00
2013-7-31,90.1,83.8,77.9,79.1,77.1,74.6,90,81,67,30.01,29.89,9,4,13,0.00
2013-8-1,92.0,84.5,78.1,79.2,76.7,71.3,93,78,53,29.95,29.85,9,4,14,0.00
2013-8-2,92.4,85.3,78.4,77.9,76.4,73.2,92,76,56,29.92,29.83,9,4,14,0.00
2013-8-3,91.3,84.9,79.1,79.7,77.6,74.4,91,79,63,29.94,29.87,10,4,15,0.00
2013-8-4,92.7,85.8,81.1,79.4,77.5,74.2,90,77,60,29.97,29.89,10,5,18,0.00
2013-8-5,92.3,85.5,80.4,78.8,77.4,75.5,90,78,59,29.96,29.84,10,6,22,0.00
2013-8-6,93.5,85.7,80.6,79.0,77.7,76.3,91,78,60,29.88,29.77,11,7,20,0.00
2013-8-7,93.5,85.2,79.7,78.7,77.3,75.9,90,78,61,29.85,29.76,10,7,17,0.00
2013-8-8,91.6,84.6,79.4,79.8,77.6,76.1,90,80,64,29.84,29.75,11,5,17,0.00
2013-8-9,90.2,84.0,78.1,80.2,77.6,75.6,93,82,66,29.89,29.80,8,4,14,0.00
2013-8-10,89.7,85.1,82.1,81.0,79.1,76.5,90,83,68,29.93,29.86,9,4,15,0.00
2013-8-11,90.0,84.6,78.8,80.1,77.5,74.9,91,80,64,29.96,29.89,11,3,17,0.00
2013-8-12,90.2,84.3,78.2,79.2,77.3,75.4,92,80,67,29.99,29.90,10,4,15,0.00
2013-8-13,93.9,86.0,80.2,79.6,77.8,76.0,90,78,58,29.96,29.82,9,4,13,0.00
2013-8-14,89.0,81.7,78.8,78.8,77.5,76.3,92,87,67,29.91,29.87,6,3,11,0.00
2013-8-15,90.7,53.9,-90.0,79.4,16.4,-99.9,91,53,65,29.90,29.82,9,3,0,0.00
2013-8-16,90.2,32.0,-90.0,78.7,-31.2,-99.9,90,30,65,29.92,29.81,8,-120,0,0.00
2013-8-17,90.2,36.3,79.7,77.8,-26.3,-99.9,81,29,62,29.93,29.83,10,-577,15,0.00
2013-8-18,89.2,55.2,-90.0,77.3,12.7,-99.9,89,43,1,29.95,29.88,11,-336,16,0.00
2013-8-19,89.2,32.4,-90.0,76.6,-33.3,-99.9,87,26,61,29.95,29.84,11,-608,12,0.00
2013-8-20,81.9,21.2,75.7,75.9,-53.0,-99.9,93,23,81,29.95,29.85,8,-341,12,0.04
2013-8-21,89.4,32.9,-90.0,79.6,-30.3,-99.9,87,30,69,29.96,29.90,10,-595,12,0.00
2013-8-22,-200.0,0.0,200.0,-99.9,-99.9,-99.9,0,0,100,29.93,29.87,0,-999,0,0.00
2013-8-23,89.8,42.8,81.2,79.2,-13.1,-99.9,88,35,64,29.92,29.82,8,-230,14,0.00